createdAt,value
2018-07-27T00:00:10.039Z,28.63
2018-07-27T00:02:39.912Z,28.56
2018-07-27T00:05:09.363Z,28.59
2018-07-27T00:07:38.847Z,28.53
2018-07-27T00:10:09.140Z,28.40
2018-07-27T00:12:38.526Z,28.43
2018-07-27T00:15:07.900Z,28.30
2018-07-27T00:17:37.269Z,28.37
2018-07-27T00:20:06.775Z,28.32
2018-07-27T00:22:36.249Z,28.28
2018-07-27T00:25:06.486Z,28.25
2018-07-27T00:27:35.889Z,28.21
2018-07-27T00:30:06.620Z,28.27
2018-07-27T00:32:36.673Z,28.12
2018-07-27T00:35:05.812Z,28.21
2018-07-27T00:37:35.189Z,28.24
2018-07-27T00:40:10.399Z,28.28
2018-07-27T00:42:39.788Z,28.21
2018-07-27T00:45:09.203Z,28.24
2018-07-27T00:47:39.014Z,28.16
2018-07-27T00:50:08.519Z,28.17
2018-07-27T00:52:37.826Z,28.03
2018-07-27T00:55:07.137Z,28.02
2018-07-27T00:57:36.470Z,27.95
2018-07-27T01:00:06.578Z,27.83
2018-07-27T01:02:35.903Z,27.68
2018-07-27T01:05:05.510Z,27.68
2018-07-27T01:07:35.137Z,27.66
2018-07-27T01:10:05.100Z,27.66
2018-07-27T01:12:34.467Z,27.64
2018-07-27T01:15:04.053Z,27.51
2018-07-27T01:17:33.747Z,27.63
2018-07-27T01:20:03.118Z,27.49
2018-07-27T01:22:32.385Z,27.61
2018-07-27T01:25:01.705Z,27.66
2018-07-27T01:27:30.959Z,27.53
2018-07-27T01:30:00.489Z,27.60
2018-07-27T01:32:30.331Z,27.59
2018-07-27T01:34:59.778Z,27.52
2018-07-27T01:37:29.183Z,27.53
2018-07-27T01:39:58.741Z,27.55
2018-07-27T01:42:28.144Z,27.34
2018-07-27T01:44:57.576Z,27.53
2018-07-27T01:47:27.019Z,27.45
2018-07-27T01:49:56.414Z,27.42
2018-07-27T01:52:25.802Z,27.48
2018-07-27T01:54:55.702Z,27.33
2018-07-27T01:57:25.053Z,27.31
2018-07-27T01:59:54.348Z,27.38
2018-07-27T02:02:23.732Z,27.24
2018-07-27T02:04:53.111Z,27.28
2018-07-27T02:07:22.447Z,27.15
2018-07-27T02:09:51.805Z,26.87
2018-07-27T02:12:21.143Z,26.98
2018-07-27T02:14:50.444Z,26.95
2018-07-27T02:17:20.528Z,26.88
2018-07-27T02:19:49.938Z,26.71
2018-07-27T02:22:19.268Z,26.84
2018-07-27T02:24:48.596Z,26.88
2018-07-27T02:27:17.954Z,26.77
2018-07-27T02:29:47.343Z,26.71
2018-07-27T02:32:16.670Z,26.67
2018-07-27T02:34:45.979Z,26.67
2018-07-27T02:37:15.436Z,26.73
2018-07-27T02:39:44.953Z,26.51
2018-07-27T02:42:14.319Z,26.71
2018-07-27T02:44:43.613Z,26.59
2018-07-27T02:47:13.055Z,26.56
2018-07-27T02:49:42.365Z,26.33
2018-07-27T02:52:11.713Z,26.41
2018-07-27T02:54:41.006Z,26.45
2018-07-27T02:57:10.400Z,26.36
2018-07-27T02:59:39.842Z,26.13
2018-07-27T03:02:09.899Z,26.15
2018-07-27T03:04:39.266Z,26.12
2018-07-27T03:07:08.909Z,26.13
2018-07-27T03:09:38.323Z,26.00
2018-07-27T03:12:07.718Z,26.05
2018-07-27T03:14:36.999Z,25.99
2018-07-27T03:17:06.815Z,25.93
2018-07-27T03:19:36.170Z,25.85
2018-07-27T03:22:05.464Z,25.67
2018-07-27T03:24:35.170Z,25.88
2018-07-27T03:27:04.608Z,25.82
2018-07-27T03:29:34.037Z,25.72
2018-07-27T03:32:03.166Z,25.69
2018-07-27T03:34:32.539Z,25.56
2018-07-27T03:37:01.920Z,25.57
2018-07-27T03:39:31.342Z,25.59
2018-07-27T03:42:00.716Z,25.66
2018-07-27T03:44:30.106Z,25.53
2018-07-27T03:46:59.979Z,25.50
2018-07-27T03:49:29.400Z,25.49
2018-07-27T03:51:58.746Z,25.47
2018-07-27T03:54:28.094Z,25.54
2018-07-27T03:56:57.369Z,25.43
2018-07-27T03:59:26.700Z,25.41
2018-07-27T04:01:56.049Z,25.50
2018-07-27T04:04:25.375Z,25.52
2018-07-27T04:06:54.674Z,25.47
2018-07-27T04:09:24.572Z,25.34
2018-07-27T04:11:53.860Z,25.38
2018-07-27T04:14:23.163Z,25.43
2018-07-27T04:16:52.517Z,25.52
2018-07-27T04:19:21.814Z,25.43
2018-07-27T04:21:51.287Z,25.58
2018-07-27T04:24:20.712Z,25.42
2018-07-27T04:26:50.295Z,25.42
2018-07-27T04:29:19.674Z,25.29
2018-07-27T04:31:49.160Z,25.25
2018-07-27T04:34:19.014Z,25.11
2018-07-27T04:36:48.496Z,25.38
2018-07-27T04:39:17.870Z,25.29
2018-07-27T04:41:47.198Z,25.44
2018-07-27T04:44:16.554Z,25.55
2018-07-27T04:46:45.863Z,25.57
2018-07-27T04:49:15.238Z,25.69
2018-07-27T04:51:44.620Z,25.70
2018-07-27T04:54:14.318Z,25.65
2018-07-27T04:56:43.716Z,25.65
2018-07-27T04:59:13.080Z,25.60
2018-07-27T05:01:42.481Z,25.68
2018-07-27T05:04:12.082Z,25.75
2018-07-27T05:06:41.460Z,25.91
2018-07-27T05:09:16.721Z,25.94
2018-07-27T05:11:46.279Z,25.89
2018-07-27T05:14:15.677Z,26.00
2018-07-27T05:16:45.146Z,25.97
2018-07-27T05:19:14.486Z,26.28
2018-07-27T05:21:43.804Z,26.25
2018-07-27T05:24:13.100Z,26.52
2018-07-27T05:26:42.415Z,26.68
2018-07-27T05:29:11.733Z,26.69
2018-07-27T05:31:41.223Z,26.60
2018-07-27T05:34:10.535Z,26.79
2018-07-27T05:36:39.989Z,26.91
2018-07-27T05:39:11.694Z,26.99
2018-07-27T05:41:41.173Z,26.92
2018-07-27T05:44:10.660Z,26.86
2018-07-27T05:46:40.001Z,26.85
2018-07-27T05:49:09.309Z,27.00
2018-07-27T05:51:38.705Z,27.02
2018-07-27T05:54:08.347Z,27.17
2018-07-27T05:56:37.691Z,27.21
2018-07-27T05:59:07.150Z,27.16
2018-07-27T06:01:36.478Z,27.00
2018-07-27T06:04:06.025Z,27.05
2018-07-27T06:06:35.378Z,26.98
2018-07-27T06:09:07.394Z,27.09
2018-07-27T06:11:36.790Z,27.39
2018-07-27T06:14:06.151Z,27.01
2018-07-27T06:16:36.107Z,27.13
2018-07-27T06:19:05.510Z,27.43
2018-07-27T06:21:34.884Z,27.65
2018-07-27T06:24:04.294Z,27.72
2018-07-27T06:26:33.630Z,27.81
2018-07-27T06:29:02.980Z,28.19
2018-07-27T06:31:32.321Z,28.21
2018-07-27T06:34:01.614Z,28.09
2018-07-27T06:36:31.092Z,27.92
2018-07-27T06:39:00.490Z,28.24
2018-07-27T06:41:29.833Z,28.41
2018-07-27T06:43:59.156Z,28.50
2018-07-27T06:46:28.763Z,28.68
2018-07-27T06:48:58.047Z,28.69
2018-07-27T06:51:27.411Z,28.82
2018-07-27T06:53:56.732Z,28.84
2018-07-27T06:56:26.071Z,28.89
2018-07-27T06:58:55.419Z,29.14
2018-07-27T07:01:24.851Z,29.33
2018-07-27T07:03:54.255Z,29.37
2018-07-27T07:06:23.608Z,29.45
2018-07-27T07:08:52.953Z,29.49
2018-07-27T07:11:22.276Z,29.58
2018-07-27T07:13:51.586Z,29.57
2018-07-27T07:16:20.972Z,29.34
2018-07-27T07:18:50.322Z,29.44
2018-07-27T07:21:19.502Z,29.52
2018-07-27T07:23:49.299Z,29.48
2018-07-27T07:26:18.625Z,29.62
2018-07-27T07:28:47.986Z,29.78
2018-07-27T07:31:17.324Z,30.11
2018-07-27T07:36:13.482Z,30.39
2018-07-27T07:38:43.076Z,30.53
2018-07-27T07:41:12.488Z,30.17
2018-07-27T07:43:42.017Z,30.28
2018-07-27T07:46:11.933Z,30.43
2018-07-27T07:48:41.291Z,30.58
2018-07-27T07:51:10.630Z,30.70
2018-07-27T07:53:39.999Z,30.80
2018-07-27T07:56:09.402Z,30.89
2018-07-27T07:58:38.746Z,30.81
2018-07-27T08:01:08.171Z,30.70
2018-07-27T08:03:37.511Z,30.79
2018-07-27T08:06:07.597Z,31.05
2018-07-27T08:08:37.032Z,30.99
2018-07-27T08:11:06.489Z,30.89
2018-07-27T08:13:35.804Z,31.14
2018-07-27T08:16:05.136Z,31.19
2018-07-27T08:18:34.509Z,31.56
2018-07-27T08:21:03.993Z,31.72
2018-07-27T08:23:33.382Z,31.67
2018-07-27T08:27:07.187Z,31.90
2018-07-27T08:29:51.565Z,31.82
2018-07-27T08:32:20.971Z,32.08
2018-07-27T08:34:50.479Z,32.36
2018-07-27T08:37:19.840Z,32.64
2018-07-27T08:39:49.327Z,32.35
2018-07-27T08:42:18.575Z,32.49
2018-07-27T08:44:47.926Z,32.66
2018-07-27T08:47:17.284Z,32.53
2018-07-27T08:49:46.555Z,32.65
2018-07-27T08:52:16.133Z,32.66
2018-07-27T08:54:45.483Z,33.14
2018-07-27T08:57:14.606Z,33.04
2018-07-27T08:59:44.005Z,32.94
2018-07-27T09:02:13.442Z,32.73
2018-07-27T09:04:42.953Z,32.86
2018-07-27T09:07:12.333Z,33.25
2018-07-27T09:09:41.870Z,32.99
2018-07-27T09:12:11.269Z,32.99
2018-07-27T09:14:41.216Z,33.06
2018-07-27T09:17:10.545Z,33.10
2018-07-27T09:19:39.970Z,33.45
2018-07-27T09:22:09.372Z,33.62
2018-07-27T09:24:38.904Z,33.71
2018-07-27T09:27:08.143Z,33.73
2018-07-27T09:29:37.499Z,33.67
2018-07-27T09:32:06.854Z,34.06
2018-07-27T09:34:36.469Z,34.38
2018-07-27T09:37:06.373Z,33.98
2018-07-27T09:39:35.750Z,33.54
2018-07-27T09:42:05.482Z,33.70
2018-07-27T09:44:34.858Z,34.16
2018-07-27T09:47:04.747Z,34.78
2018-07-27T09:49:34.097Z,35.18
2018-07-27T09:52:03.551Z,34.82
2018-07-27T09:54:32.958Z,34.73
2018-07-27T09:57:02.241Z,33.73
2018-07-27T09:59:31.910Z,33.82
2018-07-27T10:02:01.259Z,34.23
2018-07-27T10:04:30.589Z,34.64
2018-07-27T10:06:59.979Z,34.74
2018-07-27T10:09:29.353Z,35.13
2018-07-27T10:11:58.729Z,35.09
2018-07-27T10:14:28.108Z,35.13
2018-07-27T10:16:57.399Z,34.98
2018-07-27T10:19:26.736Z,34.62
2018-07-27T10:21:56.669Z,34.71
2018-07-27T10:24:26.065Z,35.06
2018-07-27T10:26:55.204Z,34.91
2018-07-27T10:29:24.714Z,35.34
2018-07-27T10:31:54.065Z,35.74
2018-07-27T10:34:23.439Z,36.22
2018-07-27T10:36:52.794Z,36.21
2018-07-27T10:39:22.246Z,36.66
2018-07-27T10:41:51.645Z,36.41
2018-07-27T10:44:21.238Z,35.91
2018-07-27T10:46:50.595Z,36.08
2018-07-27T10:49:19.666Z,36.55
2018-07-27T10:51:49.063Z,36.91
2018-07-27T10:54:18.489Z,36.97
2018-07-27T10:56:48.010Z,36.99
2018-07-27T10:59:17.317Z,36.05
2018-07-27T11:01:46.821Z,36.10
2018-07-27T11:04:16.322Z,36.29
2018-07-27T11:06:45.941Z,37.17
2018-07-27T11:09:15.293Z,37.59
2018-07-27T11:11:44.976Z,37.53
2018-07-27T11:14:14.680Z,37.22
2018-07-27T11:16:44.223Z,37.12
2018-07-27T11:19:13.479Z,37.51
2018-07-27T11:21:42.836Z,37.28
2018-07-27T11:24:12.187Z,36.91
2018-07-27T11:26:41.667Z,37.41
2018-07-27T11:29:11.663Z,37.61
2018-07-27T11:31:40.968Z,38.33
2018-07-27T11:34:10.333Z,38.38
2018-07-27T11:36:39.903Z,38.29
2018-07-27T11:39:10.905Z,38.22
2018-07-27T11:41:40.344Z,38.72
2018-07-27T11:44:09.465Z,38.09
2018-07-27T11:46:38.976Z,38.02
2018-07-27T11:49:08.450Z,38.37
2018-07-27T11:51:38.484Z,38.65
2018-07-27T11:54:07.818Z,38.03
2018-07-27T11:56:37.204Z,37.66
2018-07-27T11:59:06.568Z,37.95
2018-07-27T12:01:35.712Z,37.24
2018-07-27T12:04:05.246Z,37.06
2018-07-27T12:06:34.667Z,37.21
2018-07-27T12:09:04.935Z,37.24
2018-07-27T12:11:34.298Z,37.19
2018-07-27T12:14:04.062Z,37.28
2018-07-27T12:16:33.342Z,37.18
2018-07-27T12:19:02.783Z,37.41
2018-07-27T12:21:32.347Z,37.36
2018-07-27T12:24:01.925Z,37.73
2018-07-27T12:26:31.259Z,38.59
2018-07-27T12:29:00.783Z,38.66
2018-07-27T12:31:30.166Z,38.18
2018-07-27T12:33:59.761Z,37.96
2018-07-27T12:36:29.442Z,37.96
2018-07-27T12:38:58.823Z,38.40
2018-07-27T12:41:28.087Z,38.08
2018-07-27T12:43:57.528Z,37.09
2018-07-27T12:46:26.854Z,37.34
2018-07-27T12:48:56.183Z,38.06
2018-07-27T12:51:25.571Z,38.64
2018-07-27T12:53:55.019Z,38.85
2018-07-27T12:56:24.468Z,38.25
2018-07-27T12:58:54.367Z,36.90
2018-07-27T13:01:23.719Z,37.35
2018-07-27T13:03:53.111Z,37.34
2018-07-27T13:06:22.573Z,37.23
2018-07-27T13:08:52.051Z,37.40
2018-07-27T13:11:21.405Z,37.71
2018-07-27T13:13:50.831Z,37.49
2018-07-27T13:16:20.267Z,36.67
2018-07-27T13:18:49.586Z,36.68
2018-07-27T13:21:19.672Z,36.99
2018-07-27T13:23:58.151Z,36.94
2018-07-27T13:26:27.538Z,36.82
2018-07-27T13:28:57.042Z,37.01
2018-07-27T13:34:50.549Z,36.84
2018-07-27T13:37:21.390Z,36.74
2018-07-27T13:39:52.083Z,36.29
2018-07-27T13:42:28.994Z,36.48
2018-07-27T13:44:58.669Z,36.62
2018-07-27T13:47:28.376Z,36.59
2018-07-27T13:49:57.722Z,36.54
2018-07-27T13:52:27.103Z,36.62
2018-07-27T13:54:56.669Z,37.01
2018-07-27T13:57:26.305Z,37.20
2018-07-27T13:59:55.800Z,37.50
2018-07-27T14:02:25.123Z,37.84
2018-07-27T14:04:54.477Z,37.05
2018-07-27T14:07:23.828Z,36.79
2018-07-27T14:09:53.171Z,36.63
2018-07-27T14:12:22.708Z,36.47
2018-07-27T14:14:52.017Z,36.62
2018-07-27T14:17:21.341Z,37.04
2018-07-27T14:19:50.982Z,37.55
2018-07-27T14:22:20.339Z,37.93
2018-07-27T14:24:49.729Z,37.53
2018-07-27T14:27:19.080Z,37.00
2018-07-27T14:29:48.415Z,37.12
2018-07-27T14:32:17.926Z,36.40
2018-07-27T14:34:47.418Z,36.77
2018-07-27T14:37:16.826Z,37.06
2018-07-27T14:39:46.158Z,37.11
2018-07-27T14:42:15.578Z,36.84
2018-07-27T14:44:45.034Z,36.99
2018-07-27T14:47:14.356Z,37.20
2018-07-27T14:49:43.806Z,36.54
2018-07-27T14:52:13.109Z,36.40
2018-07-27T14:54:42.410Z,36.83
2018-07-27T14:57:12.015Z,37.01
2018-07-27T14:59:41.378Z,36.98
2018-07-27T15:02:10.665Z,36.95
2018-07-27T15:04:40.362Z,36.12
2018-07-27T15:07:09.690Z,36.46
2018-07-27T15:09:39.101Z,36.58
2018-07-27T15:12:08.607Z,36.96
2018-07-27T15:14:37.922Z,37.21
2018-07-27T15:17:07.296Z,36.71
2018-07-27T15:19:36.604Z,37.08
2018-07-27T15:22:05.970Z,37.31
2018-07-27T15:24:35.138Z,36.79
2018-07-27T15:27:04.770Z,36.82
2018-07-27T15:29:34.111Z,36.91
2018-07-27T15:32:03.391Z,36.95
2018-07-27T15:34:32.542Z,36.78
2018-07-27T15:37:02.119Z,37.01
2018-07-27T15:39:31.442Z,37.10
2018-07-27T15:42:00.815Z,36.95
2018-07-27T15:44:30.175Z,37.01
2018-07-27T15:46:59.495Z,37.13
2018-07-27T15:49:28.994Z,37.01
2018-07-27T15:51:58.289Z,37.01
2018-07-27T15:54:27.632Z,36.83
2018-07-27T15:56:56.940Z,36.83
2018-07-27T15:59:26.292Z,36.97
2018-07-27T16:01:55.615Z,37.04
2018-07-27T16:04:24.701Z,36.90
2018-07-27T16:06:53.993Z,36.57
2018-07-27T16:09:23.381Z,36.46
2018-07-27T16:11:52.903Z,36.39
2018-07-27T16:14:22.241Z,36.11
2018-07-27T16:16:51.623Z,36.50
2018-07-27T16:19:20.781Z,36.45
2018-07-27T16:21:50.157Z,36.13
2018-07-27T16:24:19.708Z,36.15
2018-07-27T16:26:49.275Z,35.99
2018-07-27T16:29:18.612Z,35.76
2018-07-27T16:31:47.955Z,35.72
2018-07-27T16:34:17.679Z,35.74
2018-07-27T16:36:47.225Z,35.80
2018-07-27T16:39:17.728Z,35.88
2018-07-27T16:41:48.460Z,35.98
2018-07-27T16:44:19.735Z,35.71
2018-07-27T16:46:49.236Z,35.71
2018-07-27T16:49:19.122Z,35.73
2018-07-27T16:51:48.562Z,35.50
2018-07-27T16:54:18.167Z,35.71
2018-07-27T16:56:47.498Z,35.61
2018-07-27T16:59:16.866Z,35.40
2018-07-27T17:01:46.192Z,35.56
2018-07-27T17:04:15.594Z,35.48
2018-07-27T17:06:44.983Z,35.20
2018-07-27T17:09:14.299Z,35.28
2018-07-27T17:11:43.708Z,35.42
2018-07-27T17:14:12.753Z,35.73
2018-07-27T17:16:42.610Z,35.39
2018-07-27T17:19:12.027Z,35.26
2018-07-27T17:21:41.474Z,35.18
2018-07-27T17:24:10.921Z,35.29
2018-07-27T17:26:40.265Z,35.27
2018-07-27T17:29:09.597Z,34.88
2018-07-27T17:31:39.036Z,35.01
2018-07-27T17:34:08.418Z,35.09
2018-07-27T17:36:37.828Z,34.73
2018-07-27T17:39:11.712Z,34.63
2018-07-27T17:41:41.458Z,34.25
2018-07-27T17:44:11.112Z,34.30
2018-07-27T17:46:40.585Z,34.13
2018-07-27T17:49:10.362Z,34.26
2018-07-27T17:51:39.678Z,34.38
2018-07-27T17:54:09.995Z,34.42
2018-07-27T17:56:39.569Z,34.22
2018-07-27T17:59:09.177Z,34.36
2018-07-27T18:01:39.153Z,34.41
2018-07-27T18:04:08.536Z,34.22
2018-07-27T18:06:38.002Z,34.15
2018-07-27T18:09:11.543Z,34.33
2018-07-27T18:11:41.142Z,34.36
2018-07-27T18:14:10.733Z,34.11
2018-07-27T18:16:40.322Z,33.92
2018-07-27T18:19:09.997Z,34.06
2018-07-27T18:21:39.810Z,34.07
2018-07-27T18:24:09.546Z,33.97
2018-07-27T18:26:39.137Z,33.37
2018-07-27T18:29:08.555Z,33.13
2018-07-27T18:31:38.415Z,33.13
2018-07-27T18:34:07.990Z,33.09
2018-07-27T18:36:38.064Z,32.88
2018-07-27T18:39:10.332Z,32.62
2018-07-27T18:41:39.847Z,32.76
2018-07-27T18:44:09.496Z,32.69
2018-07-27T18:46:40.317Z,32.79
2018-07-27T18:49:10.457Z,32.68
2018-07-27T18:51:39.905Z,32.39
2018-07-27T18:54:09.387Z,32.21
2018-07-27T18:56:39.208Z,32.03
2018-07-27T18:59:08.665Z,31.88
2018-07-27T19:01:38.209Z,31.77
2018-07-27T19:04:08.019Z,31.89
2018-07-27T19:06:37.965Z,32.03
2018-07-27T19:09:11.160Z,31.86
2018-07-27T19:11:40.511Z,31.68
2018-07-27T19:14:10.151Z,31.78
2018-07-27T19:16:39.857Z,31.75
2018-07-27T19:19:09.501Z,31.73
2018-07-27T19:21:38.817Z,31.67
2018-07-27T19:24:08.245Z,31.67
2018-07-27T19:26:37.620Z,31.43
2018-07-27T19:29:06.933Z,31.51
2018-07-27T19:31:36.312Z,31.41
2018-07-27T19:34:05.928Z,31.31
2018-07-27T19:36:35.292Z,31.54
2018-07-27T19:39:06.734Z,31.41
2018-07-27T19:41:36.104Z,31.29
2018-07-27T19:44:05.528Z,31.22
2018-07-27T19:46:34.924Z,31.18
2018-07-27T19:49:04.534Z,31.18
2018-07-27T19:51:33.601Z,31.04
2018-07-27T19:54:02.984Z,31.00
2018-07-27T19:56:32.514Z,30.73
2018-07-27T19:59:01.936Z,30.76
2018-07-27T20:01:31.522Z,30.89
2018-07-27T20:04:01.070Z,30.77
2018-07-27T20:06:30.499Z,30.72
2018-07-27T20:08:59.951Z,30.79
2018-07-27T20:11:29.661Z,30.79
2018-07-27T20:13:59.131Z,30.46
2018-07-27T20:16:28.547Z,30.45
2018-07-27T20:18:57.898Z,30.39
2018-07-27T20:21:27.411Z,30.10
2018-07-27T20:23:57.399Z,30.25
2018-07-27T20:26:26.723Z,30.26
2018-07-27T20:28:56.056Z,30.01
2018-07-27T20:31:25.454Z,30.18
2018-07-27T20:33:54.823Z,30.17
2018-07-27T20:36:24.687Z,30.04
2018-07-27T20:38:54.128Z,30.20
2018-07-27T20:41:23.495Z,29.99
2018-07-27T20:43:53.487Z,29.90
2018-07-27T20:46:23.374Z,30.01
2018-07-27T20:48:52.787Z,29.94
2018-07-27T20:51:22.318Z,29.70
2018-07-27T20:53:51.802Z,29.64
2018-07-27T20:56:21.306Z,29.74
2018-07-27T20:58:50.659Z,29.90
2018-07-27T21:01:20.045Z,29.84
2018-07-27T21:03:49.474Z,29.81
2018-07-27T21:06:18.812Z,29.77
2018-07-27T21:08:48.779Z,29.73
2018-07-27T21:11:18.317Z,29.80
2018-07-27T21:13:47.687Z,29.69
2018-07-27T21:16:17.111Z,29.64
2018-07-27T21:18:46.741Z,29.65
2018-07-27T21:21:16.120Z,29.47
2018-07-27T21:23:45.641Z,29.37
2018-07-27T21:26:14.978Z,29.38
2018-07-27T21:28:44.521Z,29.33
2018-07-27T21:31:14.356Z,29.30
2018-07-27T21:33:43.785Z,29.25
2018-07-27T21:36:13.113Z,29.24
2018-07-27T21:38:42.539Z,29.26
2018-07-27T21:41:11.684Z,29.15
2018-07-27T21:43:41.192Z,29.09
2018-07-27T21:46:10.595Z,29.01
2018-07-27T21:48:39.967Z,28.99
2018-07-27T21:51:09.363Z,29.29
2018-07-27T21:53:39.262Z,29.15
2018-07-27T21:56:08.955Z,29.10
2018-07-27T21:58:38.338Z,29.09
2018-07-27T22:01:07.808Z,29.05
2018-07-27T22:03:37.258Z,29.10
2018-07-27T22:06:06.780Z,28.94
2018-07-27T22:08:37.389Z,28.96
2018-07-27T22:11:06.884Z,28.96
2018-07-27T22:13:36.321Z,29.10
2018-07-27T22:16:06.413Z,29.00
2018-07-27T22:18:35.887Z,29.01
2018-07-27T22:21:05.370Z,28.86
2018-07-27T22:23:34.846Z,28.65
2018-07-27T22:26:04.401Z,28.61
2018-07-27T22:28:33.883Z,28.74
2018-07-27T22:31:03.232Z,28.67
2018-07-27T22:33:32.566Z,28.57
2018-07-27T22:36:01.933Z,28.56
2018-07-27T22:38:31.802Z,28.66
2018-07-27T22:41:01.219Z,28.75
2018-07-27T22:43:31.571Z,28.43
2018-07-27T22:46:01.189Z,28.50
2018-07-27T22:48:30.583Z,28.39
2018-07-27T22:50:59.982Z,28.24
2018-07-27T22:53:29.380Z,28.27
2018-07-27T22:55:58.862Z,28.35
2018-07-27T22:58:28.267Z,28.07
2018-07-27T23:00:57.951Z,28.09
2018-07-27T23:03:27.274Z,28.23
2018-07-27T23:05:56.627Z,28.37
2018-07-27T23:08:25.980Z,28.40
2018-07-27T23:10:55.305Z,28.41
2018-07-27T23:13:24.443Z,28.33
2018-07-27T23:15:53.800Z,28.46
2018-07-27T23:18:23.211Z,28.37
2018-07-27T23:20:52.665Z,28.28
2018-07-27T23:23:22.511Z,28.32
2018-07-27T23:25:51.917Z,28.27
2018-07-27T23:28:21.324Z,28.07
2018-07-27T23:30:50.922Z,27.96
2018-07-27T23:33:20.023Z,28.07
2018-07-27T23:35:49.428Z,27.98
2018-07-27T23:38:19.090Z,27.87
2018-07-27T23:40:48.481Z,27.72
2018-07-27T23:43:18.521Z,27.73
2018-07-27T23:45:49.110Z,27.69
2018-07-27T23:48:18.419Z,27.72
2018-07-27T23:50:47.730Z,27.92
2018-07-27T23:53:17.188Z,27.85
2018-07-27T23:55:46.827Z,27.88
2018-07-27T23:58:16.198Z,27.72
